sensor_id;sensor_type;location;lat;lon;timestamp;pressure;altitude;pressure_sealevel;temperature;humidity
45327;BME280;31062;49.678;24.560;2023-12-14T00:01:33;96709.22;;;3.45;82.50
45327;BME280;31062;49.678;24.560;2023-12-14T00:04:19;96719.44;;;3.45;82.15
45327;BME280;31062;49.678;24.560;2023-12-14T00:07:05;96710.16;;;3.40;82.26
45327;BME280;31062;49.678;24.560;2023-12-14T00:09:51;96716.13;;;3.46;82.29
45327;BME280;31062;49.678;24.560;2023-12-14T00:12:36;96714.69;;;3.45;82.18
45327;BME280;31062;49.678;24.560;2023-12-14T00:15:22;96713.00;;;3.50;82.04
45327;BME280;31062;49.678;24.560;2023-12-14T00:18:09;96661.03;;;3.08;82.03
45327;BME280;31062;49.678;24.560;2023-12-14T00:20:55;96720.81;;;3.53;81.90
45327;BME280;31062;49.678;24.560;2023-12-14T00:23:42;96725.97;;;3.49;82.05
45327;BME280;31062;49.678;24.560;2023-12-14T00:26:28;96723.47;;;3.44;82.12
45327;BME280;31062;49.678;24.560;2023-12-14T00:29:13;96732.75;;;3.48;81.99
45327;BME280;31062;49.678;24.560;2023-12-14T00:31:59;96730.16;;;3.50;81.91
45327;BME280;31062;49.678;24.560;2023-12-14T00:34:45;96413.63;;;1.23;81.51
45327;BME280;31062;49.678;24.560;2023-12-14T00:37:31;96735.47;;;3.48;82.12
45327;BME280;31062;49.678;24.560;2023-12-14T00:40:17;96732.91;;;3.50;82.19
45327;BME280;31062;49.678;24.560;2023-12-14T00:43:03;96733.22;;;3.54;81.94
45327;BME280;31062;49.678;24.560;2023-12-14T00:45:49;96727.75;;;3.54;81.87
45327;BME280;31062;49.678;24.560;2023-12-14T00:48:34;96727.75;;;3.54;81.76
45327;BME280;31062;49.678;24.560;2023-12-14T00:51:20;96735.78;;;3.52;81.28
45327;BME280;31062;49.678;24.560;2023-12-14T00:54:06;96743.38;;;3.44;81.31
45327;BME280;31062;49.678;24.560;2023-12-14T00:56:51;96728.38;;;3.28;81.55
45327;BME280;31062;49.678;24.560;2023-12-14T00:59:37;96734.50;;;3.36;81.64
45327;BME280;31062;49.678;24.560;2023-12-14T01:02:43;96737.06;;;3.34;81.91
45327;BME280;31062;49.678;24.560;2023-12-14T01:05:50;96745.47;;;3.36;81.74
45327;BME280;31062;49.678;24.560;2023-12-14T01:08:56;96736.69;;;3.38;81.84
45327;BME280;31062;49.678;24.560;2023-12-14T01:12:02;96736.69;;;3.38;81.57
45327;BME280;31062;49.678;24.560;2023-12-14T01:15:08;96727.56;;;3.35;81.46
45327;BME280;31062;49.678;24.560;2023-12-14T01:17:54;96730.56;;;3.29;81.37
45327;BME280;31062;49.678;24.560;2023-12-14T01:20:42;96724.19;;;3.27;81.57
45327;BME280;31062;49.678;24.560;2023-12-14T01:23:28;96730.97;;;3.26;81.63
45327;BME280;31062;49.678;24.560;2023-12-14T01:26:14;96729.69;;;3.27;81.63
45327;BME280;31062;49.678;24.560;2023-12-14T01:28:59;96731.28;;;3.30;81.51
45327;BME280;31062;49.678;24.560;2023-12-14T01:31:45;96727.44;;;3.33;81.45
45327;BME280;31062;49.678;24.560;2023-12-14T01:34:31;96727.56;;;3.35;81.21
45327;BME280;31062;49.678;24.560;2023-12-14T01:37:36;96727.56;;;3.35;81.22
45327;BME280;31062;49.678;24.560;2023-12-14T01:40:42;96728.31;;;3.36;81.08
45327;BME280;31062;49.678;24.560;2023-12-14T01:43:48;96721.78;;;3.31;80.97
45327;BME280;31062;49.678;24.560;2023-12-14T01:46:54;96719.66;;;3.22;80.77
45327;BME280;31062;49.678;24.560;2023-12-14T01:50:00;96727.88;;;3.22;81.05
45327;BME280;31062;49.678;24.560;2023-12-14T01:53:06;96717.56;;;3.13;81.01
45327;BME280;31062;49.678;24.560;2023-12-14T01:56:12;96726.44;;;3.04;81.19
45327;BME280;31062;49.678;24.560;2023-12-14T01:59:18;96726.31;;;2.94;81.30
45327;BME280;31062;49.678;24.560;2023-12-14T02:02:23;96726.53;;;2.88;81.45
45327;BME280;31062;49.678;24.560;2023-12-14T02:05:29;96723.63;;;2.86;81.71
45327;BME280;31062;49.678;24.560;2023-12-14T02:08:36;96720.75;;;2.84;82.00
45327;BME280;31062;49.678;24.560;2023-12-14T02:11:42;96719.09;;;2.81;81.86
45327;BME280;31062;49.678;24.560;2023-12-14T02:14:48;96735.75;;;2.76;81.99
45327;BME280;31062;49.678;24.560;2023-12-14T02:17:55;96659.88;;;2.27;82.15
45327;BME280;31062;49.678;24.560;2023-12-14T02:21:01;96716.44;;;2.74;82.00
45327;BME280;31062;49.678;24.560;2023-12-14T02:24:07;96593.84;;;1.81;81.76
45327;BME280;31062;49.678;24.560;2023-12-14T02:27:12;96727.59;;;2.68;82.05
45327;BME280;31062;49.678;24.560;2023-12-14T02:30:18;96735.31;;;2.62;82.05
45327;BME280;31062;49.678;24.560;2023-12-14T02:33:24;96728.22;;;2.59;82.34
45327;BME280;31062;49.678;24.560;2023-12-14T02:36:30;96735.97;;;2.70;82.40
45327;BME280;31062;49.678;24.560;2023-12-14T02:39:35;96736.50;;;2.76;82.19
45327;BME280;31062;49.678;24.560;2023-12-14T02:42:42;96740.69;;;2.77;82.19
45327;BME280;31062;49.678;24.560;2023-12-14T02:45:47;96744.69;;;2.76;82.19
45327;BME280;31062;49.678;24.560;2023-12-14T02:48:53;96747.44;;;2.76;82.38
45327;BME280;31062;49.678;24.560;2023-12-14T02:51:59;96689.38;;;2.36;81.83
45327;BME280;31062;49.678;24.560;2023-12-14T02:55:05;96750.34;;;2.78;81.84
45327;BME280;31062;49.678;24.560;2023-12-14T02:58:10;96751.44;;;2.75;82.10
45327;BME280;31062;49.678;24.560;2023-12-14T03:01:19;96754.75;;;2.74;81.95
45327;BME280;31062;49.678;24.560;2023-12-14T03:04:25;96742.75;;;2.69;81.81
45327;BME280;31062;49.678;24.560;2023-12-14T03:07:31;96741.13;;;2.66;81.85
45327;BME280;31062;49.678;24.560;2023-12-14T03:10:36;96742.09;;;2.61;82.04
45327;BME280;31062;49.678;24.560;2023-12-14T03:13:43;96729.34;;;2.56;82.21
45327;BME280;31062;49.678;24.560;2023-12-14T03:16:49;96725.75;;;2.46;82.04
45327;BME280;31062;49.678;24.560;2023-12-14T03:19:55;96719.94;;;2.42;82.61
45327;BME280;31062;49.678;24.560;2023-12-14T03:23:01;96726.00;;;2.33;82.89
45327;BME280;31062;49.678;24.560;2023-12-14T03:26:06;96726.97;;;2.28;82.91
45327;BME280;31062;49.678;24.560;2023-12-14T03:29:13;96725.91;;;2.23;83.50
45327;BME280;31062;49.678;24.560;2023-12-14T03:32:19;96733.56;;;2.25;83.26
45327;BME280;31062;49.678;24.560;2023-12-14T03:35:25;96742.50;;;2.25;83.86
45327;BME280;31062;49.678;24.560;2023-12-14T03:38:32;96743.00;;;2.31;83.75
45327;BME280;31062;49.678;24.560;2023-12-14T03:41:37;96747.13;;;2.40;83.78
45327;BME280;31062;49.678;24.560;2023-12-14T03:44:43;96719.00;;;2.15;83.61
45327;BME280;31062;49.678;24.560;2023-12-14T03:47:49;96760.03;;;2.47;83.47
45327;BME280;31062;49.678;24.560;2023-12-14T03:50:55;96759.25;;;2.54;83.34
45327;BME280;31062;49.678;24.560;2023-12-14T03:54:01;96767.25;;;2.60;82.97
45327;BME280;31062;49.678;24.560;2023-12-14T03:57:07;96740.88;;;2.47;82.92
45327;BME280;31062;49.678;24.560;2023-12-14T04:00:13;96657.94;;;1.87;83.05
45327;BME280;31062;49.678;24.560;2023-12-14T04:02:59;96765.84;;;2.51;82.98
45327;BME280;31062;49.678;24.560;2023-12-14T04:05:46;96766.97;;;2.48;83.11
45327;BME280;31062;49.678;24.560;2023-12-14T04:08:32;96760.38;;;2.51;83.15
45327;BME280;31062;49.678;24.560;2023-12-14T04:11:17;96768.75;;;2.53;83.03
45327;BME280;31062;49.678;24.560;2023-12-14T04:14:04;96764.03;;;2.46;82.96
45327;BME280;31062;49.678;24.560;2023-12-14T04:16:49;96776.63;;;2.49;82.85
45327;BME280;31062;49.678;24.560;2023-12-14T04:19:37;96783.03;;;2.44;83.06
45327;BME280;31062;49.678;24.560;2023-12-14T04:22:23;96789.78;;;2.43;82.80
45327;BME280;31062;49.678;24.560;2023-12-14T04:25:08;96788.34;;;2.42;82.77
45327;BME280;31062;49.678;24.560;2023-12-14T04:27:54;96787.81;;;2.36;83.07
45327;BME280;31062;49.678;24.560;2023-12-14T04:30:40;96798.78;;;2.28;82.92
45327;BME280;31062;49.678;24.560;2023-12-14T04:33:26;96730.50;;;1.73;83.20
45327;BME280;31062;49.678;24.560;2023-12-14T04:36:12;96748.53;;;1.76;83.30
45327;BME280;31062;49.678;24.560;2023-12-14T04:38:58;96800.00;;;2.02;83.49
45327;BME280;31062;49.678;24.560;2023-12-14T04:41:44;96656.47;;;0.83;83.46
45327;BME280;31062;49.678;24.560;2023-12-14T04:44:30;96797.50;;;1.89;84.57
45327;BME280;31062;49.678;24.560;2023-12-14T04:47:16;96791.66;;;1.85;84.83
45327;BME280;31062;49.678;24.560;2023-12-14T04:50:02;96797.91;;;1.78;84.70
45327;BME280;31062;49.678;24.560;2023-12-14T04:52:48;96797.38;;;1.72;84.84
45327;BME280;31062;49.678;24.560;2023-12-14T04:55:34;96794.25;;;1.68;84.81
45327;BME280;31062;49.678;24.560;2023-12-14T04:58:20;96795.00;;;1.61;85.33
45327;BME280;31062;49.678;24.560;2023-12-14T05:01:07;96784.84;;;1.54;86.10
45327;BME280;31062;49.678;24.560;2023-12-14T05:03:53;96782.28;;;1.56;86.22
45327;BME280;31062;49.678;24.560;2023-12-14T05:06:40;96787.72;;;1.56;86.40
45327;BME280;31062;49.678;24.560;2023-12-14T05:09:26;96775.38;;;1.55;86.35
45327;BME280;31062;49.678;24.560;2023-12-14T05:12:12;96770.66;;;1.48;86.72
45327;BME280;31062;49.678;24.560;2023-12-14T05:14:58;96776.13;;;1.48;87.20
45327;BME280;31062;49.678;24.560;2023-12-14T05:17:45;96783.59;;;1.40;87.22
45327;BME280;31062;49.678;24.560;2023-12-14T05:20:31;96785.97;;;1.36;88.14
45327;BME280;31062;49.678;24.560;2023-12-14T05:23:17;96792.50;;;1.33;88.32
45327;BME280;31062;49.678;24.560;2023-12-14T05:26:03;96803.44;;;1.33;88.03
45327;BME280;31062;49.678;24.560;2023-12-14T05:28:48;96795.78;;;1.31;88.26
45327;BME280;31062;49.678;24.560;2023-12-14T05:31:35;96824.00;;;1.34;88.83
45327;BME280;31062;49.678;24.560;2023-12-14T05:34:21;96821.28;;;1.34;88.55
45327;BME280;31062;49.678;24.560;2023-12-14T05:37:07;96804.19;;;1.18;88.90
45327;BME280;31062;49.678;24.560;2023-12-14T05:39:53;96828.19;;;1.35;88.66
45327;BME280;31062;49.678;24.560;2023-12-14T05:42:39;96832.19;;;1.34;89.16
45327;BME280;31062;49.678;24.560;2023-12-14T05:45:25;96834.91;;;1.34;88.62
45327;BME280;31062;49.678;24.560;2023-12-14T05:48:10;96837.66;;;1.34;89.20
45327;BME280;31062;49.678;24.560;2023-12-14T05:50:57;96846.03;;;1.36;89.16
45327;BME280;31062;49.678;24.560;2023-12-14T05:53:43;96849.66;;;1.38;89.43
45327;BME280;31062;49.678;24.560;2023-12-14T05:56:28;96855.84;;;1.39;89.01
45327;BME280;31062;49.678;24.560;2023-12-14T05:59:14;96859.84;;;1.38;88.39
45327;BME280;31062;49.678;24.560;2023-12-14T06:02:00;96852.75;;;1.35;88.96
45327;BME280;31062;49.678;24.560;2023-12-14T06:04:46;96855.47;;;1.27;89.35
45327;BME280;31062;49.678;24.560;2023-12-14T06:07:32;96868.59;;;1.29;89.42
45327;BME280;31062;49.678;24.560;2023-12-14T06:10:38;96862.41;;;1.20;89.45
45327;BME280;31062;49.678;24.560;2023-12-14T06:13:44;96869.31;;;1.14;89.55
45327;BME280;31062;49.678;24.560;2023-12-14T06:16:50;96878.63;;;1.18;90.00
45327;BME280;31062;49.678;24.560;2023-12-14T06:19:55;96882.41;;;1.15;90.67
45327;BME280;31062;49.678;24.560;2023-12-14T06:23:01;96882.59;;;1.10;90.13
45327;BME280;31062;49.678;24.560;2023-12-14T06:26:07;96902.78;;;1.14;90.66
45327;BME280;31062;49.678;24.560;2023-12-14T06:29:13;96897.34;;;1.14;90.77
45327;BME280;31062;49.678;24.560;2023-12-14T06:32:18;96898.78;;;1.15;90.32
45327;BME280;31062;49.678;24.560;2023-12-14T06:35:25;96904.78;;;1.14;90.57
45327;BME280;31062;49.678;24.560;2023-12-14T06:38:31;96814.28;;;0.42;91.03
45327;BME280;31062;49.678;24.560;2023-12-14T06:41:37;96797.00;;;0.39;91.28
45327;BME280;31062;49.678;24.560;2023-12-14T06:44:42;96902.06;;;1.14;91.34
45327;BME280;31062;49.678;24.560;2023-12-14T06:47:48;96905.16;;;1.10;91.81
45327;BME280;31062;49.678;24.560;2023-12-14T06:50:54;96918.09;;;1.17;91.60
45327;BME280;31062;49.678;24.560;2023-12-14T06:54:01;96916.63;;;1.16;91.26
45327;BME280;31062;49.678;24.560;2023-12-14T06:57:07;96919.56;;;1.18;91.26
45327;BME280;31062;49.678;24.560;2023-12-14T06:59:53;96931.91;;;1.19;91.68
45327;BME280;31062;49.678;24.560;2023-12-14T07:02:38;96935.94;;;1.18;91.25
45327;BME280;31062;49.678;24.560;2023-12-14T07:05:45;96943.94;;;1.16;91.71
45327;BME280;31062;49.678;24.560;2023-12-14T07:08:51;96940.66;;;1.10;91.70
45327;BME280;31062;49.678;24.560;2023-12-14T07:11:37;96955.91;;;1.13;92.11
45327;BME280;31062;49.678;24.560;2023-12-14T07:14:23;96961.38;;;1.13;92.30
45327;BME280;31062;49.678;24.560;2023-12-14T07:17:10;96978.84;;;1.10;92.44
45327;BME280;31062;49.678;24.560;2023-12-14T07:19:56;96965.97;;;1.18;92.17
45327;BME280;31062;49.678;24.560;2023-12-14T07:23:02;96967.59;;;1.21;92.16
45327;BME280;31062;49.678;24.560;2023-12-14T07:26:07;96970.53;;;1.23;92.26
45327;BME280;31062;49.678;24.560;2023-12-14T07:29:14;96967.97;;;1.26;92.11
45327;BME280;31062;49.678;24.560;2023-12-14T07:31:59;96979.44;;;1.32;92.25
45327;BME280;31062;49.678;24.560;2023-12-14T07:34:45;96984.03;;;1.37;91.68
45327;BME280;31062;49.678;24.560;2023-12-14T07:37:51;96994.03;;;1.42;91.86
45327;BME280;31062;49.678;24.560;2023-12-14T07:40:57;97004.06;;;1.47;91.40
45327;BME280;31062;49.678;24.560;2023-12-14T07:43:43;97009.88;;;1.51;91.14
45327;BME280;31062;49.678;24.560;2023-12-14T07:46:29;97014.28;;;1.54;91.33
45327;BME280;31062;49.678;24.560;2023-12-14T07:49:15;97010.97;;;1.55;91.33
45327;BME280;31062;49.678;24.560;2023-12-14T07:52:21;97017.16;;;1.56;90.71
45327;BME280;31062;49.678;24.560;2023-12-14T07:55:28;97022.28;;;1.52;90.42
45327;BME280;31062;49.678;24.560;2023-12-14T07:58:14;97036.63;;;1.45;90.94
45327;BME280;31062;49.678;24.560;2023-12-14T08:01:21;97038.63;;;1.44;91.25
45327;BME280;31062;49.678;24.560;2023-12-14T08:04:06;97042.09;;;1.45;90.98
45327;BME280;31062;49.678;24.560;2023-12-14T08:07:12;97046.09;;;1.44;91.45
45327;BME280;31062;49.678;24.560;2023-12-14T08:09:59;97050.28;;;1.45;91.35
45327;BME280;31062;49.678;24.560;2023-12-14T08:13:04;97050.28;;;1.45;91.19
45327;BME280;31062;49.678;24.560;2023-12-14T08:16:10;97058.69;;;1.47;90.73
45327;BME280;31062;49.678;24.560;2023-12-14T08:18:59;97061.59;;;1.49;91.15
45327;BME280;31062;49.678;24.560;2023-12-14T08:21:46;97069.97;;;1.51;91.32
45327;BME280;31062;49.678;24.560;2023-12-14T08:24:32;97072.16;;;1.52;91.19
45327;BME280;31062;49.678;24.560;2023-12-14T08:27:18;97081.28;;;1.55;90.71
45327;BME280;31062;49.678;24.560;2023-12-14T08:30:04;97085.66;;;1.58;90.59
45327;BME280;31062;49.678;24.560;2023-12-14T08:32:50;97092.38;;;1.57;90.67
45327;BME280;31062;49.678;24.560;2023-12-14T08:35:36;97097.13;;;1.56;90.29
45327;BME280;31062;49.678;24.560;2023-12-14T08:38:22;97098.94;;;1.54;90.43
45327;BME280;31062;49.678;24.560;2023-12-14T08:41:08;97105.69;;;1.53;90.65
45327;BME280;31062;49.678;24.560;2023-12-14T08:43:57;97114.78;;;1.55;91.01
45327;BME280;31062;49.678;24.560;2023-12-14T08:46:45;97092.53;;;1.44;91.02
45327;BME280;31062;49.678;24.560;2023-12-14T08:49:51;97126.09;;;1.59;90.82
45327;BME280;31062;49.678;24.560;2023-12-14T08:52:57;97120.06;;;1.61;90.21
45327;BME280;31062;49.678;24.560;2023-12-14T08:56:03;97130.81;;;1.59;90.02
45327;BME280;31062;49.678;24.560;2023-12-14T08:59:09;97131.88;;;1.56;90.47
45327;BME280;31062;49.678;24.560;2023-12-14T09:01:55;97127.53;;;1.53;90.45
45327;BME280;31062;49.678;24.560;2023-12-14T09:04:42;97131.53;;;1.52;90.74
45327;BME280;31062;49.678;24.560;2023-12-14T09:07:28;97134.78;;;1.50;90.58
45327;BME280;31062;49.678;24.560;2023-12-14T09:10:14;97147.53;;;1.48;90.77
45327;BME280;31062;49.678;24.560;2023-12-14T09:13:20;97146.06;;;1.47;90.77
45327;BME280;31062;49.678;24.560;2023-12-14T09:16:26;97143.16;;;1.45;91.42
45327;BME280;31062;49.678;24.560;2023-12-14T09:19:12;97147.13;;;1.44;91.42
45327;BME280;31062;49.678;24.560;2023-12-14T09:22:00;97149.34;;;1.45;91.34
45327;BME280;31062;49.678;24.560;2023-12-14T09:25:07;97138.78;;;1.42;91.44
45327;BME280;31062;49.678;24.560;2023-12-14T09:28:13;97160.97;;;1.38;91.51
45327;BME280;31062;49.678;24.560;2023-12-14T09:31:19;97148.94;;;1.34;91.56
45327;BME280;31062;49.678;24.560;2023-12-14T09:34:26;97156.00;;;1.29;91.72
45327;BME280;31062;49.678;24.560;2023-12-14T09:37:11;97162.00;;;1.28;92.34
45327;BME280;31062;49.678;24.560;2023-12-14T09:39:59;97159.81;;;1.26;91.88
45327;BME280;31062;49.678;24.560;2023-12-14T09:43:06;97168.56;;;1.25;92.61
45327;BME280;31062;49.678;24.560;2023-12-14T09:46:12;97164.16;;;1.21;92.32
45327;BME280;31062;49.678;24.560;2023-12-14T09:49:19;97169.28;;;1.25;92.89
45327;BME280;31062;49.678;24.560;2023-12-14T09:52:06;97175.13;;;1.29;92.57
45327;BME280;31062;49.678;24.560;2023-12-14T09:54:52;97178.03;;;1.31;92.53
45327;BME280;31062;49.678;24.560;2023-12-14T09:57:41;97181.16;;;1.35;92.70
45327;BME280;31062;49.678;24.560;2023-12-14T10:00:37;97179.53;;;1.40;92.02
45327;BME280;31062;49.678;24.560;2023-12-14T10:03:28;97178.28;;;1.41;91.75
45327;BME280;31062;49.678;24.560;2023-12-14T10:06:14;97189.19;;;1.41;92.15
45327;BME280;31062;49.678;24.560;2023-12-14T10:09:23;97183.94;;;1.43;91.72
45327;BME280;31062;49.678;24.560;2023-12-14T10:12:29;97185.38;;;1.44;91.81
45327;BME280;31062;49.678;24.560;2023-12-14T10:15:45;97128.56;;;0.99;91.28
45327;BME280;31062;49.678;24.560;2023-12-14T10:18:51;97188.81;;;1.37;91.84
45327;BME280;31062;49.678;24.560;2023-12-14T10:21:57;97191.19;;;1.40;91.74
45327;BME280;31062;49.678;24.560;2023-12-14T10:25:04;97180.66;;;1.44;92.18
45327;BME280;31062;49.678;24.560;2023-12-14T10:28:13;97190.84;;;1.44;91.34
45327;BME280;31062;49.678;24.560;2023-12-14T10:31:19;97189.72;;;1.39;91.34
45327;BME280;31062;49.678;24.560;2023-12-14T10:34:26;97192.81;;;1.36;91.25
45327;BME280;31062;49.678;24.560;2023-12-14T10:37:32;97175.06;;;1.21;91.28
45327;BME280;31062;49.678;24.560;2023-12-14T10:40:44;97192.63;;;1.34;91.26
45327;BME280;31062;49.678;24.560;2023-12-14T10:43:52;97198.06;;;1.34;91.65
45327;BME280;31062;49.678;24.560;2023-12-14T10:46:58;97195.16;;;1.32;91.41
45327;BME280;31062;49.678;24.560;2023-12-14T10:49:50;97193.16;;;1.32;91.87
45327;BME280;31062;49.678;24.560;2023-12-14T10:52:37;97197.69;;;1.30;91.87
45327;BME280;31062;49.678;24.560;2023-12-14T10:55:29;97211.53;;;1.32;91.39
45327;BME280;31062;49.678;24.560;2023-12-14T10:58:16;97209.34;;;1.30;91.97
45327;BME280;31062;49.678;24.560;2023-12-14T11:01:05;97196.19;;;1.21;92.00
45327;BME280;31062;49.678;24.560;2023-12-14T11:03:55;97169.84;;;0.95;91.78
45327;BME280;31062;49.678;24.560;2023-12-14T11:06:45;97224.31;;;1.37;91.51
45327;BME280;31062;49.678;24.560;2023-12-14T11:09:52;97243.81;;;1.41;91.64
45327;BME280;31062;49.678;24.560;2023-12-14T11:13:03;97233.47;;;1.47;91.37
45327;BME280;31062;49.678;24.560;2023-12-14T11:16:08;97238.94;;;1.47;90.88
45327;BME280;31062;49.678;24.560;2023-12-14T11:19:24;97246.94;;;1.45;90.58
45327;BME280;31062;49.678;24.560;2023-12-14T11:22:33;97252.38;;;1.45;91.03
45327;BME280;31062;49.678;24.560;2023-12-14T11:25:42;97254.94;;;1.43;90.78
45327;BME280;31062;49.678;24.560;2023-12-14T11:28:48;97229.19;;;1.31;90.73
45327;BME280;31062;49.678;24.560;2023-12-14T11:31:53;97241.09;;;1.41;90.70
45327;BME280;31062;49.678;24.560;2023-12-14T11:34:59;97249.28;;;1.41;90.92
45327;BME280;31062;49.678;24.560;2023-12-14T11:38:05;97250.53;;;1.40;91.19
45327;BME280;31062;49.678;24.560;2023-12-14T11:41:11;97249.06;;;1.39;90.91
45327;BME280;31062;49.678;24.560;2023-12-14T11:44:23;97252.00;;;1.41;91.15
45327;BME280;31062;49.678;24.560;2023-12-14T11:47:30;97260.19;;;1.41;90.44
45327;BME280;31062;49.678;24.560;2023-12-14T11:50:15;97264.41;;;1.42;90.59
45327;BME280;31062;49.678;24.560;2023-12-14T11:53:02;97285.50;;;1.41;90.73
45327;BME280;31062;49.678;24.560;2023-12-14T11:55:49;97258.19;;;1.41;90.59
45327;BME280;31062;49.678;24.560;2023-12-14T11:58:35;97259.13;;;1.44;90.24
45327;BME280;31062;49.678;24.560;2023-12-14T12:01:20;97271.72;;;1.47;90.11
45327;BME280;31062;49.678;24.560;2023-12-14T12:04:10;97269.19;;;1.49;90.12
45327;BME280;31062;49.678;24.560;2023-12-14T12:07:16;97284.84;;;1.48;89.87
45327;BME280;31062;49.678;24.560;2023-12-14T12:10:23;97292.09;;;1.46;90.12
45327;BME280;31062;49.678;24.560;2023-12-14T12:13:16;97295.75;;;1.48;90.54
45327;BME280;31062;49.678;24.560;2023-12-14T12:16:22;97301.53;;;1.45;90.40
45327;BME280;31062;49.678;24.560;2023-12-14T12:19:09;97310.81;;;1.42;90.51
45327;BME280;31062;49.678;24.560;2023-12-14T12:21:55;97310.63;;;1.40;90.74
45327;BME280;31062;49.678;24.560;2023-12-14T12:24:45;97310.97;;;1.36;91.22
45327;BME280;31062;49.678;24.560;2023-12-14T12:28:02;97317.16;;;1.37;91.25
45327;BME280;31062;49.678;24.560;2023-12-14T12:31:08;97327.00;;;1.40;91.43
45327;BME280;31062;49.678;24.560;2023-12-14T12:34:14;97307.31;;;1.34;91.36
45327;BME280;31062;49.678;24.560;2023-12-14T12:37:19;97335.44;;;1.49;91.29
45327;BME280;31062;49.678;24.560;2023-12-14T12:40:25;97338.91;;;1.50;91.18
45327;BME280;31062;49.678;24.560;2023-12-14T12:43:32;97348.19;;;1.47;91.67
45327;BME280;31062;49.678;24.560;2023-12-14T12:46:38;97345.25;;;1.45;91.21
45327;BME280;31062;49.678;24.560;2023-12-14T12:49:55;97289.63;;;1.06;91.12
45327;BME280;31062;49.678;24.560;2023-12-14T12:53:01;97359.50;;;1.51;91.19
45327;BME280;31062;49.678;24.560;2023-12-14T12:56:07;97358.03;;;1.50;91.10
45327;BME280;31062;49.678;24.560;2023-12-14T12:59:13;97372.97;;;1.49;90.90
45327;BME280;31062;49.678;24.560;2023-12-14T13:02:18;97376.41;;;1.49;91.16
45327;BME280;31062;49.678;24.560;2023-12-14T13:05:24;97389.88;;;1.47;90.88
45327;BME280;31062;49.678;24.560;2023-12-14T13:08:29;97376.16;;;1.40;91.46
45327;BME280;31062;49.678;24.560;2023-12-14T13:11:35;97394.03;;;1.41;91.33
45327;BME280;31062;49.678;24.560;2023-12-14T13:14:41;97395.06;;;1.38;91.49
45327;BME280;31062;49.678;24.560;2023-12-14T13:17:47;97387.44;;;1.36;90.91
45327;BME280;31062;49.678;24.560;2023-12-14T13:20:52;97397.06;;;1.37;91.50
45327;BME280;31062;49.678;24.560;2023-12-14T13:23:58;97393.22;;;1.33;90.94
45327;BME280;31062;49.678;24.560;2023-12-14T13:27:04;97413.34;;;1.43;90.75
45327;BME280;31062;49.678;24.560;2023-12-14T13:30:10;97414.41;;;1.40;90.21
45327;BME280;31062;49.678;24.560;2023-12-14T13:33:16;97431.19;;;1.44;89.68
45327;BME280;31062;49.678;24.560;2023-12-14T13:36:21;97433.91;;;1.44;89.91
45327;BME280;31062;49.678;24.560;2023-12-14T13:39:28;97442.09;;;1.44;89.37
45327;BME280;31062;49.678;24.560;2023-12-14T13:42:33;97452.50;;;1.45;89.45
45327;BME280;31062;49.678;24.560;2023-12-14T13:45:51;97455.97;;;1.46;89.01
45327;BME280;31062;49.678;24.560;2023-12-14T13:49:06;97467.09;;;1.48;89.70
45327;BME280;31062;49.678;24.560;2023-12-14T13:52:12;97471.31;;;1.49;89.34
45327;BME280;31062;49.678;24.560;2023-12-14T13:55:18;97461.34;;;1.38;88.85
45327;BME280;31062;49.678;24.560;2023-12-14T13:58:24;97477.09;;;1.45;89.40
45327;BME280;31062;49.678;24.560;2023-12-14T14:01:30;97476.88;;;1.43;88.76
45327;BME280;31062;49.678;24.560;2023-12-14T14:04:36;97487.28;;;1.45;89.13
45327;BME280;31062;49.678;24.560;2023-12-14T14:07:43;97500.94;;;1.45;89.45
45327;BME280;31062;49.678;24.560;2023-12-14T14:10:50;97485.66;;;1.29;88.76
45327;BME280;31062;49.678;24.560;2023-12-14T14:13:55;97507.25;;;1.40;89.20
45327;BME280;31062;49.678;24.560;2023-12-14T14:17:01;97501.41;;;1.36;88.81
45327;BME280;31062;49.678;24.560;2023-12-14T14:20:08;97509.03;;;1.37;89.12
45327;BME280;31062;49.678;24.560;2023-12-14T14:23:14;97517.34;;;1.32;89.07
45327;BME280;31062;49.678;24.560;2023-12-14T14:26:19;97522.41;;;1.28;89.04
45327;BME280;31062;49.678;24.560;2023-12-14T14:29:25;97503.78;;;1.18;88.91
45327;BME280;31062;49.678;24.560;2023-12-14T14:32:32;97531.00;;;1.32;88.63
45327;BME280;31062;49.678;24.560;2023-12-14T14:35:37;97536.16;;;1.35;89.06
45327;BME280;31062;49.678;24.560;2023-12-14T14:38:24;97533.09;;;1.39;89.44
45327;BME280;31062;49.678;24.560;2023-12-14T14:41:30;97553.91;;;1.42;89.16
45327;BME280;31062;49.678;24.560;2023-12-14T14:44:35;97547.34;;;1.45;88.67
45327;BME280;31062;49.678;24.560;2023-12-14T14:47:41;97549.56;;;1.46;88.35
45327;BME280;31062;49.678;24.560;2023-12-14T14:50:47;97555.97;;;1.49;88.34
45327;BME280;31062;49.678;24.560;2023-12-14T14:53:54;97578.03;;;1.51;88.79
45327;BME280;31062;49.678;24.560;2023-12-14T14:57:00;97576.97;;;1.54;87.81
45327;BME280;31062;49.678;24.560;2023-12-14T15:00:06;97586.09;;;1.56;88.19
45327;BME280;31062;49.678;24.560;2023-12-14T15:03:12;97588.31;;;1.58;87.92
45327;BME280;31062;49.678;24.560;2023-12-14T15:06:17;97596.72;;;1.60;88.25
45327;BME280;31062;49.678;24.560;2023-12-14T15:09:23;97616.03;;;1.62;87.57
45327;BME280;31062;49.678;24.560;2023-12-14T15:12:29;97618.97;;;1.64;87.80
45327;BME280;31062;49.678;24.560;2023-12-14T15:15:35;97617.19;;;1.67;87.72
45327;BME280;31062;49.678;24.560;2023-12-14T15:18:21;97637.22;;;1.69;87.80
45327;BME280;31062;49.678;24.560;2023-12-14T15:21:09;97633.25;;;1.70;87.57
45327;BME280;31062;49.678;24.560;2023-12-14T15:23:57;97631.38;;;1.65;86.91
45327;BME280;31062;49.678;24.560;2023-12-14T15:26:43;97637.88;;;1.62;87.38
45327;BME280;31062;49.678;24.560;2023-12-14T15:29:51;97587.22;;;1.27;87.49
45327;BME280;31062;49.678;24.560;2023-12-14T15:32:58;97635.56;;;1.66;87.19
45327;BME280;31062;49.678;24.560;2023-12-14T15:35:44;97640.09;;;1.63;87.08
45327;BME280;31062;49.678;24.560;2023-12-14T15:38:49;97635.34;;;1.64;87.46
45327;BME280;31062;49.678;24.560;2023-12-14T15:41:55;97632.88;;;1.53;87.57